createdAt,value
2019-05-30T00:06:37.351Z,88.50
2019-05-30T00:16:41.744Z,87.16
2019-05-30T00:26:46.276Z,86.27
2019-05-30T00:36:51.866Z,87.31
2019-05-30T00:46:56.321Z,88.50
2019-05-30T00:57:00.780Z,89.16
2019-05-30T01:07:05.458Z,89.12
2019-05-30T01:17:10.044Z,88.54
2019-05-30T01:27:14.693Z,88.26
2019-05-30T01:37:19.250Z,89.30
2019-05-30T01:47:23.707Z,89.94
2019-05-30T01:57:28.134Z,90.70
2019-05-30T02:07:32.572Z,90.84
2019-05-30T02:17:37.173Z,91.63
2019-05-30T02:27:41.649Z,92.21
2019-05-30T02:37:46.109Z,92.20
2019-05-30T02:47:50.739Z,92.38
2019-05-30T02:57:55.281Z,93.12
2019-05-30T03:08:01.806Z,93.70
2019-05-30T03:18:07.995Z,93.83
2019-05-30T03:28:13.627Z,93.76
2019-05-30T03:38:18.359Z,94.18
2019-05-30T03:48:26.172Z,94.02
2019-05-30T03:58:42.824Z,93.82
2019-05-30T04:08:50.025Z,93.70
2019-05-30T04:18:54.643Z,93.20
2019-05-30T04:28:59.159Z,90.68
2019-05-30T04:39:05.331Z,90.73
2019-05-30T04:49:10.177Z,90.19
2019-05-30T04:59:17.314Z,88.62
2019-05-30T05:09:22.369Z,86.92
2019-05-30T05:19:27.437Z,85.54
2019-05-30T05:29:31.875Z,85.60
2019-05-30T05:39:36.334Z,82.36
2019-05-30T05:49:40.852Z,81.61
2019-05-30T05:59:45.354Z,79.54
2019-05-30T06:09:49.938Z,73.43
2019-05-30T06:19:54.477Z,67.48
2019-05-30T06:29:59.957Z,71.24
2019-05-30T06:40:06.959Z,66.97
2019-05-30T06:50:11.702Z,62.00
2019-05-30T07:00:16.585Z,63.11
2019-05-30T07:21:36.359Z,59.92
2019-05-30T07:31:40.935Z,60.37
2019-05-30T07:41:45.386Z,59.07
2019-05-30T07:51:49.892Z,56.28
2019-05-30T08:01:54.435Z,56.26
2019-05-30T08:11:59.253Z,52.05
2019-05-30T08:22:03.785Z,50.25
2019-05-30T08:32:08.296Z,50.25
2019-05-30T08:42:12.789Z,50.75
2019-05-30T08:52:17.321Z,53.30
2019-05-30T09:02:21.806Z,50.56
2019-05-30T09:12:26.967Z,49.83
2019-05-30T09:22:31.639Z,47.80
2019-05-30T09:32:36.270Z,49.38
2019-05-30T09:42:42.621Z,46.89
2019-05-30T09:52:47.296Z,47.82
2019-05-30T10:02:52.535Z,47.58
2019-05-30T10:12:57.072Z,46.61
2019-05-30T10:23:03.578Z,48.10
2019-05-30T10:33:07.879Z,46.76
2019-05-30T10:43:12.346Z,43.19
2019-05-30T10:53:16.802Z,44.01
2019-05-30T11:03:21.706Z,44.12
2019-05-30T11:13:27.200Z,41.28
2019-05-30T11:23:31.727Z,41.27
2019-05-30T11:33:37.232Z,34.25
2019-05-30T11:43:42.773Z,37.03
2019-05-30T11:53:47.372Z,33.14
2019-05-30T12:03:52.508Z,31.54
2019-05-30T12:13:57.482Z,28.93
2019-05-30T12:24:02.653Z,24.94
2019-05-30T12:34:07.295Z,23.72
2019-05-30T12:44:11.865Z,25.65
2019-05-30T12:54:16.454Z,22.47
2019-05-30T13:04:21.141Z,24.35
2019-05-30T13:14:26.784Z,26.85
2019-05-30T13:24:32.411Z,26.50
2019-05-30T13:34:36.841Z,25.20
2019-05-30T13:44:41.307Z,24.81
2019-05-30T13:54:45.853Z,26.76
2019-05-30T14:04:50.297Z,25.11
2019-05-30T14:14:54.891Z,25.45
2019-05-30T14:25:01.293Z,25.48
2019-05-30T14:35:08.661Z,24.59
2019-05-30T14:45:16.816Z,24.58
2019-05-30T14:55:21.860Z,23.93
2019-05-30T15:05:26.451Z,24.42
2019-05-30T15:15:31.003Z,25.26
2019-05-30T15:25:35.662Z,27.57
2019-05-30T15:35:40.270Z,29.34
2019-05-30T15:45:44.860Z,29.17
2019-05-30T15:55:49.356Z,27.55
2019-05-30T16:05:53.868Z,26.40
2019-05-30T16:15:58.370Z,30.08
2019-05-30T16:26:02.809Z,29.29
2019-05-30T16:36:08.600Z,27.83
2019-05-30T16:46:14.260Z,27.76
2019-05-30T16:56:19.420Z,26.50
2019-05-30T17:06:24.048Z,29.08
2019-05-30T17:16:28.678Z,31.52
2019-05-30T17:26:33.216Z,31.45
2019-05-30T17:36:37.824Z,35.48
2019-05-30T17:46:42.357Z,37.09
2019-05-30T17:56:46.892Z,39.62
2019-05-30T18:06:51.334Z,39.63
2019-05-30T18:16:55.797Z,42.08
2019-05-30T18:27:00.270Z,46.12
2019-05-30T18:37:04.854Z,47.39
2019-05-30T18:47:09.422Z,50.15
2019-05-30T18:57:13.945Z,52.26
2019-05-30T19:07:18.688Z,53.21
2019-05-30T19:17:23.404Z,54.90
2019-05-30T19:27:28.704Z,56.12
2019-05-30T19:37:35.354Z,57.91
2019-05-30T19:47:40.203Z,59.93
2019-05-30T19:57:45.575Z,63.69
2019-05-30T20:07:50.174Z,67.61
2019-05-30T20:17:54.891Z,71.06
2019-05-30T20:27:59.358Z,75.81
2019-05-30T20:38:03.903Z,76.21
2019-05-30T20:48:08.716Z,78.72
2019-05-30T20:58:13.226Z,80.54
2019-05-30T21:08:17.861Z,80.03
2019-05-30T21:18:24.114Z,82.19
2019-05-30T21:28:28.702Z,83.94
2019-05-30T21:38:33.171Z,84.85
2019-05-30T21:48:38.801Z,86.14
2019-05-30T21:58:44.345Z,85.70
2019-05-30T22:08:49.317Z,88.47
2019-05-30T22:18:53.961Z,89.67
2019-05-30T22:28:58.768Z,89.30
2019-05-30T22:39:03.361Z,92.25
2019-05-30T22:49:08.355Z,92.60
2019-05-30T22:59:13.933Z,94.13
2019-05-30T23:09:19.408Z,95.54
2019-05-30T23:19:23.866Z,96.45
2019-05-30T23:29:28.299Z,95.23
2019-05-30T23:39:32.759Z,95.89
2019-05-30T23:49:37.241Z,96.85
2019-05-30T23:59:41.689Z,100.00
